createdAt,value
2022-12-22T00:01:25.433Z,51.80
2022-12-22T00:04:11.140Z,50.45
2022-12-22T00:06:56.824Z,49.35
2022-12-22T00:09:43.577Z,51.88
2022-12-22T00:12:31.021Z,50.47
2022-12-22T00:15:17.401Z,49.30
2022-12-22T00:18:03.074Z,49.08
2022-12-22T00:20:50.202Z,49.80
2022-12-22T00:23:35.715Z,49.08
2022-12-22T00:26:21.617Z,48.70
2022-12-22T00:29:06.981Z,47.55
2022-12-22T00:31:52.841Z,48.20
2022-12-22T00:34:40.540Z,45.67
2022-12-22T00:37:30.921Z,44.22
2022-12-22T00:40:17.832Z,47.03
2022-12-22T00:43:03.183Z,47.05
2022-12-22T00:45:49.588Z,46.28
2022-12-22T00:48:44.721Z,43.63
2022-12-22T00:51:31.041Z,46.00
2022-12-22T00:54:16.376Z,43.67
2022-12-22T00:57:02.581Z,44.22
2022-12-22T00:59:48.480Z,42.72
2022-12-22T01:02:34.527Z,44.63
2022-12-22T01:05:20.153Z,46.55
2022-12-22T01:08:05.988Z,43.95
2022-12-22T01:10:51.151Z,44.80
2022-12-22T01:13:36.430Z,43.03
2022-12-22T01:16:21.728Z,45.72
2022-12-22T01:19:06.890Z,45.38
2022-12-22T01:21:53.004Z,46.97
2022-12-22T01:24:38.226Z,47.40
2022-12-22T01:27:23.628Z,45.15
2022-12-22T01:30:11.745Z,45.90
2022-12-22T01:32:57.070Z,47.60
2022-12-22T01:35:45.499Z,46.80
2022-12-22T01:38:31.106Z,48.70
2022-12-22T01:41:18.928Z,48.55
2022-12-22T01:44:04.214Z,48.45
2022-12-22T01:46:59.190Z,47.70
2022-12-22T01:50:01.993Z,46.58
2022-12-22T01:52:53.589Z,46.25
2022-12-22T01:55:42.787Z,48.17
2022-12-22T01:58:39.975Z,47.00
2022-12-22T02:01:25.466Z,46.20
2022-12-22T02:04:11.268Z,46.63
2022-12-22T02:07:00.786Z,51.67
2022-12-22T02:10:07.809Z,50.38
2022-12-22T02:13:20.418Z,47.60
2022-12-22T02:16:16.236Z,49.08
2022-12-22T02:19:09.615Z,50.05
2022-12-22T02:22:14.086Z,51.67
2022-12-22T02:25:17.196Z,53.00
2022-12-22T02:28:04.285Z,50.28
2022-12-22T02:30:51.842Z,54.10
2022-12-22T02:33:39.639Z,51.42
2022-12-22T02:36:57.662Z,53.88
2022-12-22T02:40:11.357Z,52.85
2022-12-22T02:43:16.600Z,51.85
2022-12-22T02:46:28.289Z,51.75
2022-12-22T02:49:25.418Z,53.25
2022-12-22T02:52:22.015Z,53.40
2022-12-22T02:55:09.128Z,52.97
2022-12-22T02:57:54.315Z,52.28
2022-12-22T03:00:40.249Z,52.15
2022-12-22T03:03:25.888Z,52.15
2022-12-22T03:06:11.417Z,54.95
2022-12-22T03:08:57.314Z,53.58
2022-12-22T03:11:42.543Z,53.20
2022-12-22T03:14:27.908Z,54.85
2022-12-22T03:17:13.322Z,53.35
2022-12-22T03:19:58.468Z,56.08
2022-12-22T03:22:44.060Z,57.03
2022-12-22T03:25:29.271Z,57.45
2022-12-22T03:28:03.286Z,56.45
2022-12-22T03:30:30.506Z,55.40
2022-12-22T03:32:57.551Z,63.03
2022-12-22T03:35:24.724Z,55.35
2022-12-22T03:37:51.661Z,60.63
2022-12-22T03:40:18.940Z,54.85
2022-12-22T03:43:04.081Z,54.90
2022-12-22T03:45:49.435Z,49.70
2022-12-22T03:48:16.360Z,51.35
2022-12-22T03:50:44.099Z,60.78
2022-12-22T03:53:10.914Z,58.13
2022-12-22T03:55:37.719Z,57.58
2022-12-22T03:58:05.857Z,55.28
2022-12-22T04:00:32.718Z,55.85
2022-12-22T04:02:59.766Z,58.83
2022-12-22T04:05:29.391Z,56.65
2022-12-22T04:07:56.244Z,65.80
2022-12-22T04:10:42.005Z,62.05
2022-12-22T04:13:08.822Z,53.63
2022-12-22T04:15:35.799Z,53.22
2022-12-22T04:18:04.560Z,58.97
2022-12-22T04:20:31.497Z,58.80
2022-12-22T04:22:58.589Z,50.00
2022-12-22T04:25:26.328Z,51.42
2022-12-22T04:27:54.013Z,47.45
2022-12-22T04:30:21.042Z,57.33
2022-12-22T04:32:48.065Z,56.25
2022-12-22T04:35:14.957Z,53.33
2022-12-22T04:37:41.767Z,53.88
2022-12-22T04:40:08.886Z,51.38
2022-12-22T04:42:35.772Z,50.20
2022-12-22T04:45:02.695Z,58.30
2022-12-22T04:47:29.977Z,51.55
2022-12-22T04:49:56.900Z,61.00
2022-12-22T04:52:25.488Z,57.47
2022-12-22T04:54:52.651Z,55.05
2022-12-22T04:57:21.570Z,50.72
2022-12-22T04:59:48.513Z,54.65
2022-12-22T05:02:15.437Z,50.75
2022-12-22T05:04:42.407Z,62.20
2022-12-22T05:07:09.271Z,54.58
2022-12-22T05:09:36.257Z,50.78
2022-12-22T05:12:23.078Z,55.95
2022-12-22T05:14:50.040Z,57.95
2022-12-22T05:17:16.795Z,52.60
2022-12-22T05:19:43.603Z,61.97
2022-12-22T05:22:10.390Z,53.40
2022-12-22T05:24:37.164Z,44.75
2022-12-22T05:27:04.198Z,44.58
2022-12-22T05:29:31.297Z,42.15
2022-12-22T05:31:58.040Z,41.67
2022-12-22T05:34:24.875Z,42.50
2022-12-22T05:36:51.763Z,39.83
2022-12-22T05:39:19.370Z,38.72
2022-12-22T05:41:46.144Z,38.60
2022-12-22T05:44:12.905Z,37.42
2022-12-22T05:46:39.799Z,38.55
2022-12-22T05:49:06.651Z,35.60
2022-12-22T05:51:34.692Z,37.20
2022-12-22T05:54:01.483Z,38.42
2022-12-22T05:56:28.273Z,38.20
2022-12-22T05:58:55.092Z,44.35
2022-12-22T06:01:21.849Z,43.30
2022-12-22T06:03:48.944Z,44.35
2022-12-22T06:06:16.559Z,43.85
2022-12-22T06:08:43.283Z,46.53
2022-12-22T06:11:10.045Z,44.63
2022-12-22T06:13:36.797Z,47.55
2022-12-22T06:16:03.659Z,52.67
2022-12-22T06:18:30.836Z,52.95
2022-12-22T06:20:57.915Z,52.05
2022-12-22T06:23:24.856Z,52.42
2022-12-22T06:26:00.478Z,54.85
2022-12-22T06:28:27.635Z,52.83
2022-12-22T06:30:55.260Z,52.33
2022-12-22T06:33:22.807Z,48.53
2022-12-22T06:35:57.649Z,51.97
2022-12-22T06:38:26.655Z,47.92
2022-12-22T06:40:55.208Z,48.00
2022-12-22T06:43:22.030Z,45.53
2022-12-22T06:45:48.963Z,46.20
2022-12-22T06:48:15.844Z,45.63
2022-12-22T06:50:42.976Z,46.65
2022-12-22T06:53:10.273Z,45.10
2022-12-22T06:55:37.815Z,39.60
2022-12-22T06:58:05.692Z,39.28
2022-12-22T07:00:32.778Z,39.75
2022-12-22T07:03:00.325Z,38.67
2022-12-22T07:05:27.562Z,34.63
2022-12-22T07:07:54.453Z,37.63
2022-12-22T07:10:41.209Z,33.80
2022-12-22T07:13:19.360Z,32.75
2022-12-22T07:15:57.654Z,40.50
2022-12-22T07:18:28.369Z,43.60
2022-12-22T07:20:55.402Z,35.78
2022-12-22T07:23:25.604Z,37.58
2022-12-22T07:25:55.715Z,35.80
2022-12-22T07:28:22.829Z,35.65
2022-12-22T07:30:50.806Z,34.20
2022-12-22T07:33:17.923Z,35.50
2022-12-22T07:35:44.867Z,35.22
2022-12-22T07:38:12.831Z,30.40
2022-12-22T07:40:42.274Z,29.95
2022-12-22T07:43:10.395Z,30.30
2022-12-22T07:45:38.625Z,31.13
2022-12-22T07:48:25.636Z,31.10
2022-12-22T07:50:52.618Z,29.95
2022-12-22T07:53:19.773Z,29.85
2022-12-22T07:55:46.682Z,29.17
2022-12-22T07:58:14.907Z,26.27
2022-12-22T08:00:41.803Z,30.40
2022-12-22T08:03:09.876Z,28.90
2022-12-22T08:05:38.710Z,27.42
2022-12-22T08:08:05.907Z,28.00
2022-12-22T08:10:33.325Z,25.77
2022-12-22T08:13:00.328Z,23.42
2022-12-22T08:15:30.130Z,24.02
2022-12-22T08:17:57.409Z,22.85
2022-12-22T08:20:24.660Z,22.95
2022-12-22T08:22:51.568Z,22.13
2022-12-22T08:25:18.516Z,20.88
2022-12-22T08:27:50.155Z,20.85
2022-12-22T08:30:17.516Z,20.40
2022-12-22T08:32:48.704Z,23.85
2022-12-22T08:35:16.099Z,25.77
2022-12-22T08:37:44.898Z,19.17
2022-12-22T08:40:17.970Z,20.58
2022-12-22T08:42:45.993Z,21.83
2022-12-22T08:45:13.132Z,20.52
2022-12-22T08:47:40.082Z,22.05
2022-12-22T08:50:07.983Z,23.75
2022-12-22T08:52:34.910Z,16.88
2022-12-22T08:55:01.686Z,17.83
2022-12-22T08:57:28.730Z,17.45
2022-12-22T08:59:55.578Z,19.33
2022-12-22T09:02:23.026Z,20.33
2022-12-22T09:04:49.915Z,19.20
2022-12-22T09:07:16.780Z,21.08
2022-12-22T09:09:43.600Z,20.67
2022-12-22T09:12:11.132Z,19.38
2022-12-22T09:14:38.066Z,20.73
2022-12-22T09:17:05.385Z,20.65
2022-12-22T09:19:33.622Z,20.30
2022-12-22T09:22:00.549Z,18.52
2022-12-22T09:24:27.412Z,17.55
2022-12-22T09:26:54.895Z,16.45
2022-12-22T09:29:21.937Z,16.77
2022-12-22T09:31:49.010Z,16.83
2022-12-22T09:34:18.521Z,14.80
2022-12-22T09:36:47.075Z,14.63
2022-12-22T09:39:14.596Z,13.50
2022-12-22T09:41:52.047Z,13.68
2022-12-22T09:44:41.854Z,13.48
2022-12-22T09:47:36.100Z,12.10
2022-12-22T09:50:05.831Z,12.20
2022-12-22T09:52:35.624Z,13.43
2022-12-22T09:55:06.053Z,12.88
2022-12-22T09:57:33.392Z,12.20
2022-12-22T10:00:13.657Z,11.20
2022-12-22T10:03:08.004Z,13.90
2022-12-22T10:05:59.693Z,11.90
2022-12-22T10:08:33.292Z,15.40
2022-12-22T10:11:00.046Z,11.18
2022-12-22T10:13:26.886Z,10.80
2022-12-22T10:15:56.503Z,11.18
2022-12-22T10:18:28.120Z,34.42
2022-12-22T10:21:24.680Z,17.98
2022-12-22T10:23:52.000Z,11.32
2022-12-22T10:26:31.274Z,17.35
2022-12-22T10:29:08.240Z,10.90
2022-12-22T10:31:40.005Z,14.18
2022-12-22T10:34:15.917Z,22.85
2022-12-22T10:36:57.587Z,20.35
2022-12-22T10:39:29.791Z,31.63
2022-12-22T10:42:11.448Z,11.13
2022-12-22T10:47:17.953Z,10.68
2022-12-22T10:49:48.805Z,10.13
2022-12-22T10:52:32.398Z,9.43
2022-12-22T10:55:26.118Z,8.18
2022-12-22T10:58:15.916Z,8.05
2022-12-22T11:00:45.069Z,7.65
2022-12-22T11:03:18.988Z,7.25
2022-12-22T11:05:49.471Z,8.32
2022-12-22T11:08:20.652Z,8.00
2022-12-22T11:10:59.361Z,7.32
2022-12-22T11:14:04.567Z,6.93
2022-12-22T11:17:00.122Z,6.40
2022-12-22T11:19:37.679Z,6.20
2022-12-22T11:22:28.330Z,7.22
2022-12-22T11:25:18.934Z,7.90
2022-12-22T11:27:46.324Z,8.35
2022-12-22T11:30:20.505Z,6.80
2022-12-22T11:32:59.123Z,6.35
2022-12-22T11:35:31.884Z,4.72
2022-12-22T11:38:24.877Z,4.30
2022-12-22T11:41:14.719Z,3.20
2022-12-22T11:44:10.920Z,3.22
2022-12-22T11:47:01.271Z,4.43
2022-12-22T11:50:57.774Z,4.13
2022-12-22T11:55:43.258Z,3.30
2022-12-22T11:58:57.663Z,4.25
2022-12-22T12:01:45.233Z,3.70
2022-12-22T12:04:48.324Z,3.72
2022-12-22T12:07:26.185Z,3.28
2022-12-22T12:10:12.164Z,4.05
2022-12-22T12:12:53.790Z,3.58
2022-12-22T12:15:33.158Z,3.92
2022-12-22T12:18:24.183Z,3.60
2022-12-22T12:20:59.696Z,3.88
2022-12-22T12:23:38.589Z,4.78
2022-12-22T12:26:11.795Z,4.55
2022-12-22T12:29:12.057Z,4.63
2022-12-22T12:31:43.829Z,4.30
2022-12-22T12:34:14.812Z,4.68
2022-12-22T12:37:00.731Z,4.50
2022-12-22T12:39:57.207Z,5.85
2022-12-22T12:42:29.564Z,4.90
2022-12-22T12:44:56.675Z,6.63
2022-12-22T12:47:28.847Z,6.53
2022-12-22T12:49:58.284Z,6.80
2022-12-22T12:52:40.207Z,7.95
2022-12-22T12:55:33.335Z,9.02
2022-12-22T12:58:04.152Z,9.80
2022-12-22T13:00:43.128Z,10.73
2022-12-22T13:04:01.237Z,11.82
2022-12-22T13:06:51.539Z,11.20
2022-12-22T13:12:41.198Z,13.68
2022-12-22T13:15:35.456Z,15.13
2022-12-22T13:18:05.005Z,18.25
2022-12-22T13:20:38.980Z,18.23
2022-12-22T13:23:16.129Z,20.15
2022-12-22T13:25:52.586Z,18.52
2022-12-22T13:28:21.814Z,17.75
2022-12-22T13:31:00.970Z,17.30
2022-12-22T13:33:32.150Z,17.85
2022-12-22T13:36:00.012Z,18.65
2022-12-22T13:38:30.784Z,17.27
2022-12-22T13:41:00.409Z,17.25
2022-12-22T13:43:30.665Z,18.60
2022-12-22T13:46:01.470Z,18.50
2022-12-22T13:48:43.312Z,18.58
2022-12-22T13:51:34.482Z,19.98
2022-12-22T13:54:38.519Z,19.15
